sensor_id;sensor_type;location;lat;lon;timestamp;P1;durP1;ratioP1;P2;durP2;ratioP2
44462;SDS011;30170;52.190;8.702;2023-01-04T00:00:50;5.10;;;3.92;;
44462;SDS011;30170;52.190;8.702;2023-01-04T00:03:17;7.07;;;4.32;;
44462;SDS011;30170;52.190;8.702;2023-01-04T00:05:45;4.90;;;4.50;;
44462;SDS011;30170;52.190;8.702;2023-01-04T00:08:12;5.07;;;4.22;;
44462;SDS011;30170;52.190;8.702;2023-01-04T00:10:39;6.93;;;4.32;;
44462;SDS011;30170;52.190;8.702;2023-01-04T00:13:06;4.15;;;2.85;;
44462;SDS011;30170;52.190;8.702;2023-01-04T00:15:34;7.28;;;3.38;;
44462;SDS011;30170;52.190;8.702;2023-01-04T00:18:01;4.90;;;2.80;;
44462;SDS011;30170;52.190;8.702;2023-01-04T00:20:28;6.03;;;5.13;;
44462;SDS011;30170;52.190;8.702;2023-01-04T00:22:56;5.32;;;3.55;;
44462;SDS011;30170;52.190;8.702;2023-01-04T00:25:23;4.95;;;4.45;;
44462;SDS011;30170;52.190;8.702;2023-01-04T00:27:51;5.88;;;5.00;;
44462;SDS011;30170;52.190;8.702;2023-01-04T00:30:18;6.53;;;3.20;;
44462;SDS011;30170;52.190;8.702;2023-01-04T00:32:45;5.55;;;4.90;;
44462;SDS011;30170;52.190;8.702;2023-01-04T00:35:12;6.55;;;5.78;;
44462;SDS011;30170;52.190;8.702;2023-01-04T00:38:00;9.00;;;4.05;;
44462;SDS011;30170;52.190;8.702;2023-01-04T00:40:27;3.38;;;2.60;;
44462;SDS011;30170;52.190;8.702;2023-01-04T00:42:55;6.78;;;2.47;;
44462;SDS011;30170;52.190;8.702;2023-01-04T00:45:22;5.25;;;4.43;;
44462;SDS011;30170;52.190;8.702;2023-01-04T00:47:49;3.70;;;3.38;;
44462;SDS011;30170;52.190;8.702;2023-01-04T00:50:16;6.00;;;4.25;;
44462;SDS011;30170;52.190;8.702;2023-01-04T00:52:43;10.70;;;4.30;;
44462;SDS011;30170;52.190;8.702;2023-01-04T00:55:10;5.57;;;3.45;;
44462;SDS011;30170;52.190;8.702;2023-01-04T00:57:37;3.05;;;2.75;;
44462;SDS011;30170;52.190;8.702;2023-01-04T01:00:05;3.58;;;3.15;;
44462;SDS011;30170;52.190;8.702;2023-01-04T01:02:32;8.98;;;3.72;;
44462;SDS011;30170;52.190;8.702;2023-01-04T01:05:00;7.75;;;3.97;;
44462;SDS011;30170;52.190;8.702;2023-01-04T01:07:27;5.75;;;5.28;;
44462;SDS011;30170;52.190;8.702;2023-01-04T01:09:54;7.47;;;5.63;;
44462;SDS011;30170;52.190;8.702;2023-01-04T01:12:21;6.57;;;5.40;;
44462;SDS011;30170;52.190;8.702;2023-01-04T01:14:49;5.88;;;5.28;;
44462;SDS011;30170;52.190;8.702;2023-01-04T01:17:22;6.03;;;4.18;;
44462;SDS011;30170;52.190;8.702;2023-01-04T01:19:49;7.70;;;7.00;;
44462;SDS011;30170;52.190;8.702;2023-01-04T01:22:16;9.35;;;8.68;;
44462;SDS011;30170;52.190;8.702;2023-01-04T01:24:43;6.30;;;5.80;;
44462;SDS011;30170;52.190;8.702;2023-01-04T01:27:11;12.25;;;11.45;;
44462;SDS011;30170;52.190;8.702;2023-01-04T01:29:38;7.70;;;6.50;;
44462;SDS011;30170;52.190;8.702;2023-01-04T01:32:05;13.40;;;12.48;;
44462;SDS011;30170;52.190;8.702;2023-01-04T01:34:32;7.88;;;7.28;;
44462;SDS011;30170;52.190;8.702;2023-01-04T01:36:59;11.60;;;10.65;;
44462;SDS011;30170;52.190;8.702;2023-01-04T01:39:28;8.05;;;5.53;;
44462;SDS011;30170;52.190;8.702;2023-01-04T01:41:55;7.80;;;7.20;;
44462;SDS011;30170;52.190;8.702;2023-01-04T01:47:18;10.63;;;9.90;;
44462;SDS011;30170;52.190;8.702;2023-01-04T01:49:47;7.30;;;6.70;;
44462;SDS011;30170;52.190;8.702;2023-01-04T01:52:26;12.07;;;11.15;;
44462;SDS011;30170;52.190;8.702;2023-01-04T01:54:57;8.18;;;7.65;;
44462;SDS011;30170;52.190;8.702;2023-01-04T01:57:27;11.73;;;10.85;;
44462;SDS011;30170;52.190;8.702;2023-01-04T01:59:58;7.70;;;6.93;;
44462;SDS011;30170;52.190;8.702;2023-01-04T02:02:26;9.32;;;8.43;;
44462;SDS011;30170;52.190;8.702;2023-01-04T02:04:53;12.93;;;12.13;;
44462;SDS011;30170;52.190;8.702;2023-01-04T02:07:22;15.60;;;14.13;;
44462;SDS011;30170;52.190;8.702;2023-01-04T02:09:50;10.15;;;9.30;;
44462;SDS011;30170;52.190;8.702;2023-01-04T02:12:17;20.83;;;19.40;;
44462;SDS011;30170;52.190;8.702;2023-01-04T02:14:46;17.52;;;16.40;;
44462;SDS011;30170;52.190;8.702;2023-01-04T02:33:08;9.23;;;8.63;;
44462;SDS011;30170;52.190;8.702;2023-01-04T02:38:24;12.57;;;11.68;;
44462;SDS011;30170;52.190;8.702;2023-01-04T02:41:56;16.15;;;15.25;;
44462;SDS011;30170;52.190;8.702;2023-01-04T02:43:52;10.90;;;10.20;;
44462;SDS011;30170;52.190;8.702;2023-01-04T02:46:47;15.25;;;14.35;;
44462;SDS011;30170;52.190;8.702;2023-01-04T02:49:16;11.48;;;10.68;;
44462;SDS011;30170;52.190;8.702;2023-01-04T02:52:13;20.13;;;18.20;;
44462;SDS011;30170;52.190;8.702;2023-01-04T02:54:40;10.75;;;9.88;;
44462;SDS011;30170;52.190;8.702;2023-01-04T03:10:27;20.17;;;18.77;;
44462;SDS011;30170;52.190;8.702;2023-01-04T03:12:57;21.70;;;20.38;;
44462;SDS011;30170;52.190;8.702;2023-01-04T03:15:27;12.63;;;11.60;;
44462;SDS011;30170;52.190;8.702;2023-01-04T03:17:58;24.83;;;22.80;;
44462;SDS011;30170;52.190;8.702;2023-01-04T03:20:27;25.38;;;23.85;;
44462;SDS011;30170;52.190;8.702;2023-01-04T03:23:03;17.08;;;15.48;;
44462;SDS011;30170;52.190;8.702;2023-01-04T03:29:02;23.48;;;21.80;;
44462;SDS011;30170;52.190;8.702;2023-01-04T03:31:53;35.00;;;32.80;;
44462;SDS011;30170;52.190;8.702;2023-01-04T03:34:40;20.05;;;18.65;;
44462;SDS011;30170;52.190;8.702;2023-01-04T03:37:36;20.88;;;19.42;;
44462;SDS011;30170;52.190;8.702;2023-01-04T03:43:02;20.50;;;19.17;;
44462;SDS011;30170;52.190;8.702;2023-01-04T03:45:56;23.55;;;21.73;;
44462;SDS011;30170;52.190;8.702;2023-01-04T03:48:57;31.25;;;29.13;;
44462;SDS011;30170;52.190;8.702;2023-01-04T03:51:30;40.22;;;37.88;;
44462;SDS011;30170;52.190;8.702;2023-01-04T03:56:29;28.35;;;26.52;;
44462;SDS011;30170;52.190;8.702;2023-01-04T03:58:56;23.35;;;21.83;;
44462;SDS011;30170;52.190;8.702;2023-01-04T04:01:24;32.10;;;29.92;;
44462;SDS011;30170;52.190;8.702;2023-01-04T04:03:52;29.85;;;28.02;;
44462;SDS011;30170;52.190;8.702;2023-01-04T04:06:39;17.90;;;16.80;;
44462;SDS011;30170;52.190;8.702;2023-01-04T04:09:25;35.92;;;33.53;;
44462;SDS011;30170;52.190;8.702;2023-01-04T04:11:52;21.25;;;19.80;;
44462;SDS011;30170;52.190;8.702;2023-01-04T04:14:19;35.45;;;33.33;;
44462;SDS011;30170;52.190;8.702;2023-01-04T04:16:48;33.35;;;31.30;;
44462;SDS011;30170;52.190;8.702;2023-01-04T04:19:16;29.48;;;27.63;;
44462;SDS011;30170;52.190;8.702;2023-01-04T04:21:44;23.08;;;21.48;;
44462;SDS011;30170;52.190;8.702;2023-01-04T04:24:21;26.35;;;24.70;;
44462;SDS011;30170;52.190;8.702;2023-01-04T04:26:50;21.90;;;20.42;;
44462;SDS011;30170;52.190;8.702;2023-01-04T04:29:20;24.65;;;23.13;;
44462;SDS011;30170;52.190;8.702;2023-01-04T04:31:47;30.55;;;28.13;;
44462;SDS011;30170;52.190;8.702;2023-01-04T04:34:15;22.25;;;20.70;;
44462;SDS011;30170;52.190;8.702;2023-01-04T04:36:42;19.13;;;17.92;;
44462;SDS011;30170;52.190;8.702;2023-01-04T04:39:10;25.73;;;22.52;;
44462;SDS011;30170;52.190;8.702;2023-01-04T04:41:37;18.17;;;17.02;;
44462;SDS011;30170;52.190;8.702;2023-01-04T04:44:08;24.52;;;22.90;;
44462;SDS011;30170;52.190;8.702;2023-01-04T04:46:35;25.75;;;24.10;;
44462;SDS011;30170;52.190;8.702;2023-01-04T04:49:03;22.20;;;20.75;;
44462;SDS011;30170;52.190;8.702;2023-01-04T04:51:30;21.30;;;19.95;;
44462;SDS011;30170;52.190;8.702;2023-01-04T04:53:59;34.78;;;32.40;;
44462;SDS011;30170;52.190;8.702;2023-01-04T04:56:32;24.35;;;22.83;;
44462;SDS011;30170;52.190;8.702;2023-01-04T04:59:16;24.17;;;22.45;;
44462;SDS011;30170;52.190;8.702;2023-01-04T05:01:44;34.08;;;31.35;;
44462;SDS011;30170;52.190;8.702;2023-01-04T05:04:13;28.88;;;26.95;;
44462;SDS011;30170;52.190;8.702;2023-01-04T05:06:42;38.70;;;36.05;;
44462;SDS011;30170;52.190;8.702;2023-01-04T05:09:13;16.25;;;15.20;;
44462;SDS011;30170;52.190;8.702;2023-01-04T05:11:43;40.25;;;37.65;;
44462;SDS011;30170;52.190;8.702;2023-01-04T05:14:29;24.27;;;22.73;;
44462;SDS011;30170;52.190;8.702;2023-01-04T05:16:56;39.78;;;37.22;;
44462;SDS011;30170;52.190;8.702;2023-01-04T05:19:24;12.23;;;11.40;;
44462;SDS011;30170;52.190;8.702;2023-01-04T05:21:51;11.70;;;10.98;;
44462;SDS011;30170;52.190;8.702;2023-01-04T05:24:18;16.85;;;15.80;;
44462;SDS011;30170;52.190;8.702;2023-01-04T05:26:46;15.73;;;14.60;;
44462;SDS011;30170;52.190;8.702;2023-01-04T05:29:13;17.20;;;16.10;;
44462;SDS011;30170;52.190;8.702;2023-01-04T05:32:00;29.27;;;27.50;;
44462;SDS011;30170;52.190;8.702;2023-01-04T05:34:27;19.27;;;17.98;;
44462;SDS011;30170;52.190;8.702;2023-01-04T05:36:54;17.95;;;16.63;;
44462;SDS011;30170;52.190;8.702;2023-01-04T05:39:22;27.60;;;25.95;;
44462;SDS011;30170;52.190;8.702;2023-01-04T05:41:49;26.15;;;24.50;;
44462;SDS011;30170;52.190;8.702;2023-01-04T05:44:35;22.45;;;21.10;;
44462;SDS011;30170;52.190;8.702;2023-01-04T05:47:02;12.57;;;11.75;;
44462;SDS011;30170;52.190;8.702;2023-01-04T05:49:34;19.77;;;18.70;;
44462;SDS011;30170;52.190;8.702;2023-01-04T05:52:01;24.90;;;23.40;;
44462;SDS011;30170;52.190;8.702;2023-01-04T05:54:29;19.75;;;18.55;;
44462;SDS011;30170;52.190;8.702;2023-01-04T05:56:56;35.35;;;33.17;;
44462;SDS011;30170;52.190;8.702;2023-01-04T05:59:23;35.60;;;33.35;;
44462;SDS011;30170;52.190;8.702;2023-01-04T06:01:50;35.58;;;33.30;;
44462;SDS011;30170;52.190;8.702;2023-01-04T06:04:18;22.50;;;20.88;;
44462;SDS011;30170;52.190;8.702;2023-01-04T06:06:45;24.00;;;22.58;;
44462;SDS011;30170;52.190;8.702;2023-01-04T06:09:12;59.15;;;55.15;;
44462;SDS011;30170;52.190;8.702;2023-01-04T06:11:39;51.22;;;47.92;;
44462;SDS011;30170;52.190;8.702;2023-01-04T06:14:07;49.60;;;46.55;;
44462;SDS011;30170;52.190;8.702;2023-01-04T06:16:34;3.50;;;1.83;;
44462;SDS011;30170;52.190;8.702;2023-01-04T06:19:02;2.47;;;1.63;;
44462;SDS011;30170;52.190;8.702;2023-01-04T06:21:29;2.65;;;1.60;;
44462;SDS011;30170;52.190;8.702;2023-01-04T06:23:56;3.67;;;1.85;;
44462;SDS011;30170;52.190;8.702;2023-01-04T06:26:22;3.58;;;1.90;;
44462;SDS011;30170;52.190;8.702;2023-01-04T06:28:49;3.13;;;2.20;;
44462;SDS011;30170;52.190;8.702;2023-01-04T06:31:16;4.55;;;2.40;;
44462;SDS011;30170;52.190;8.702;2023-01-04T06:33:43;3.00;;;1.73;;
44462;SDS011;30170;52.190;8.702;2023-01-04T06:36:10;3.33;;;2.35;;
44462;SDS011;30170;52.190;8.702;2023-01-04T06:38:45;2.65;;;1.88;;
44462;SDS011;30170;52.190;8.702;2023-01-04T06:41:12;3.22;;;1.83;;
44462;SDS011;30170;52.190;8.702;2023-01-04T06:43:39;3.40;;;2.25;;
44462;SDS011;30170;52.190;8.702;2023-01-04T06:46:06;3.00;;;1.92;;
44462;SDS011;30170;52.190;8.702;2023-01-04T06:48:33;6.10;;;1.83;;
44462;SDS011;30170;52.190;8.702;2023-01-04T06:51:00;2.80;;;1.77;;
44462;SDS011;30170;52.190;8.702;2023-01-04T06:53:27;2.65;;;1.70;;
44462;SDS011;30170;52.190;8.702;2023-01-04T06:55:54;3.58;;;1.95;;
44462;SDS011;30170;52.190;8.702;2023-01-04T06:58:21;4.10;;;2.25;;
44462;SDS011;30170;52.190;8.702;2023-01-04T07:00:49;3.10;;;2.13;;
44462;SDS011;30170;52.190;8.702;2023-01-04T07:03:17;3.30;;;2.38;;
44462;SDS011;30170;52.190;8.702;2023-01-04T07:05:44;5.53;;;2.53;;
44462;SDS011;30170;52.190;8.702;2023-01-04T07:08:11;2.47;;;1.83;;
44462;SDS011;30170;52.190;8.702;2023-01-04T07:10:39;5.35;;;2.00;;
44462;SDS011;30170;52.190;8.702;2023-01-04T07:13:07;3.85;;;1.95;;
44462;SDS011;30170;52.190;8.702;2023-01-04T07:15:34;2.97;;;2.05;;
44462;SDS011;30170;52.190;8.702;2023-01-04T07:18:09;4.97;;;2.53;;
44462;SDS011;30170;52.190;8.702;2023-01-04T07:20:37;5.10;;;2.00;;
44462;SDS011;30170;52.190;8.702;2023-01-04T07:23:04;3.70;;;2.38;;
44462;SDS011;30170;52.190;8.702;2023-01-04T07:25:32;3.05;;;1.90;;
44462;SDS011;30170;52.190;8.702;2023-01-04T07:27:59;3.70;;;2.42;;
44462;SDS011;30170;52.190;8.702;2023-01-04T07:30:26;4.70;;;2.90;;
44462;SDS011;30170;52.190;8.702;2023-01-04T07:32:54;4.03;;;2.30;;
44462;SDS011;30170;52.190;8.702;2023-01-04T07:35:21;4.70;;;2.58;;
44462;SDS011;30170;52.190;8.702;2023-01-04T07:37:49;3.55;;;2.20;;
44462;SDS011;30170;52.190;8.702;2023-01-04T07:40:23;3.75;;;2.60;;
44462;SDS011;30170;52.190;8.702;2023-01-04T07:42:57;3.20;;;2.58;;
44462;SDS011;30170;52.190;8.702;2023-01-04T07:45:25;3.47;;;1.90;;
44462;SDS011;30170;52.190;8.702;2023-01-04T07:47:53;3.80;;;2.58;;
44462;SDS011;30170;52.190;8.702;2023-01-04T07:50:20;3.47;;;1.88;;
44462;SDS011;30170;52.190;8.702;2023-01-04T07:52:47;3.05;;;1.98;;
44462;SDS011;30170;52.190;8.702;2023-01-04T07:55:21;4.82;;;2.15;;
44462;SDS011;30170;52.190;8.702;2023-01-04T07:57:48;3.28;;;2.22;;
44462;SDS011;30170;52.190;8.702;2023-01-04T08:00:15;2.90;;;2.10;;
44462;SDS011;30170;52.190;8.702;2023-01-04T08:02:43;3.53;;;2.15;;
44462;SDS011;30170;52.190;8.702;2023-01-04T08:05:10;4.15;;;2.67;;
44462;SDS011;30170;52.190;8.702;2023-01-04T08:07:38;3.63;;;2.40;;
44462;SDS011;30170;52.190;8.702;2023-01-04T08:10:06;3.33;;;2.38;;
44462;SDS011;30170;52.190;8.702;2023-01-04T08:12:36;4.25;;;2.95;;
44462;SDS011;30170;52.190;8.702;2023-01-04T08:21:04;7.05;;;2.80;;
44462;SDS011;30170;52.190;8.702;2023-01-04T08:23:32;4.22;;;2.72;;
44462;SDS011;30170;52.190;8.702;2023-01-04T08:26:09;4.25;;;2.83;;
44462;SDS011;30170;52.190;8.702;2023-01-04T08:28:37;4.40;;;2.45;;
44462;SDS011;30170;52.190;8.702;2023-01-04T08:31:06;4.80;;;2.97;;
44462;SDS011;30170;52.190;8.702;2023-01-04T08:33:50;6.80;;;2.47;;
44462;SDS011;30170;52.190;8.702;2023-01-04T08:36:27;4.30;;;2.70;;
44462;SDS011;30170;52.190;8.702;2023-01-04T08:39:02;5.93;;;3.08;;
44462;SDS011;30170;52.190;8.702;2023-01-04T08:41:31;4.55;;;3.53;;
44462;SDS011;30170;52.190;8.702;2023-01-04T08:44:19;5.00;;;3.35;;
44462;SDS011;30170;52.190;8.702;2023-01-04T08:46:50;5.82;;;3.00;;
44462;SDS011;30170;52.190;8.702;2023-01-04T08:49:17;4.95;;;2.78;;
44462;SDS011;30170;52.190;8.702;2023-01-04T08:51:58;5.47;;;3.70;;
44462;SDS011;30170;52.190;8.702;2023-01-04T08:56:59;3.55;;;2.58;;
44462;SDS011;30170;52.190;8.702;2023-01-04T08:59:26;11.38;;;2.97;;
44462;SDS011;30170;52.190;8.702;2023-01-04T09:01:56;6.85;;;3.38;;
44462;SDS011;30170;52.190;8.702;2023-01-04T09:04:31;4.18;;;2.40;;
44462;SDS011;30170;52.190;8.702;2023-01-04T09:06:59;4.07;;;2.80;;
44462;SDS011;30170;52.190;8.702;2023-01-04T09:09:26;4.38;;;2.92;;
44462;SDS011;30170;52.190;8.702;2023-01-04T09:25:21;5.43;;;3.25;;
44462;SDS011;30170;52.190;8.702;2023-01-04T09:27:56;4.22;;;2.88;;
44462;SDS011;30170;52.190;8.702;2023-01-04T09:30:44;3.20;;;2.40;;
44462;SDS011;30170;52.190;8.702;2023-01-04T09:33:12;4.22;;;2.95;;
44462;SDS011;30170;52.190;8.702;2023-01-04T09:35:39;4.28;;;2.10;;
44462;SDS011;30170;52.190;8.702;2023-01-04T09:38:06;3.75;;;2.50;;
44462;SDS011;30170;52.190;8.702;2023-01-04T09:43:19;5.97;;;3.88;;
44462;SDS011;30170;52.190;8.702;2023-01-04T09:45:48;5.80;;;3.10;;
44462;SDS011;30170;52.190;8.702;2023-01-04T09:48:19;4.78;;;2.97;;
44462;SDS011;30170;52.190;8.702;2023-01-04T09:50:58;4.97;;;3.53;;
44462;SDS011;30170;52.190;8.702;2023-01-04T09:53:46;4.13;;;2.70;;
44462;SDS011;30170;52.190;8.702;2023-01-04T09:56:35;4.28;;;2.90;;
44462;SDS011;30170;52.190;8.702;2023-01-04T09:59:09;7.43;;;3.50;;
44462;SDS011;30170;52.190;8.702;2023-01-04T10:04:11;7.45;;;3.63;;
44462;SDS011;30170;52.190;8.702;2023-01-04T10:06:40;4.47;;;2.67;;
44462;SDS011;30170;52.190;8.702;2023-01-04T10:09:11;7.55;;;3.28;;
44462;SDS011;30170;52.190;8.702;2023-01-04T10:14:22;5.15;;;3.55;;
44462;SDS011;30170;52.190;8.702;2023-01-04T10:33:27;3.72;;;2.78;;
44462;SDS011;30170;52.190;8.702;2023-01-04T10:35:57;4.35;;;2.95;;
44462;SDS011;30170;52.190;8.702;2023-01-04T10:38:25;4.90;;;3.08;;
44462;SDS011;30170;52.190;8.702;2023-01-04T10:40:54;4.80;;;3.08;;
44462;SDS011;30170;52.190;8.702;2023-01-04T10:46:16;5.05;;;3.22;;
44462;SDS011;30170;52.190;8.702;2023-01-04T10:48:43;3.08;;;2.28;;
44462;SDS011;30170;52.190;8.702;2023-01-04T10:51:13;5.57;;;3.40;;
44462;SDS011;30170;52.190;8.702;2023-01-04T10:53:43;6.85;;;3.17;;
44462;SDS011;30170;52.190;8.702;2023-01-04T10:56:24;4.70;;;2.95;;
44462;SDS011;30170;52.190;8.702;2023-01-04T11:01:37;3.13;;;2.08;;
44462;SDS011;30170;52.190;8.702;2023-01-04T11:04:26;5.82;;;3.42;;
44462;SDS011;30170;52.190;8.702;2023-01-04T11:09:23;9.45;;;4.15;;
44462;SDS011;30170;52.190;8.702;2023-01-04T11:11:54;8.50;;;4.38;;
44462;SDS011;30170;52.190;8.702;2023-01-04T11:14:24;4.20;;;2.37;;
44462;SDS011;30170;52.190;8.702;2023-01-04T11:17:02;4.30;;;3.38;;
44462;SDS011;30170;52.190;8.702;2023-01-04T11:19:30;4.97;;;3.28;;
44462;SDS011;30170;52.190;8.702;2023-01-04T11:24:54;8.55;;;4.50;;
44462;SDS011;30170;52.190;8.702;2023-01-04T11:27:47;5.60;;;3.53;;
44462;SDS011;30170;52.190;8.702;2023-01-04T11:30:15;4.57;;;3.15;;
44462;SDS011;30170;52.190;8.702;2023-01-04T11:33:10;4.82;;;2.78;;
44462;SDS011;30170;52.190;8.702;2023-01-04T11:35:52;6.13;;;3.58;;
44462;SDS011;30170;52.190;8.702;2023-01-04T11:38:21;6.60;;;3.97;;
44462;SDS011;30170;52.190;8.702;2023-01-04T11:43:27;5.47;;;4.28;;
44462;SDS011;30170;52.190;8.702;2023-01-04T11:50:58;8.70;;;5.55;;
44462;SDS011;30170;52.190;8.702;2023-01-04T11:53:30;7.38;;;4.78;;
44462;SDS011;30170;52.190;8.702;2023-01-04T11:56:08;9.15;;;5.47;;
44462;SDS011;30170;52.190;8.702;2023-01-04T11:58:36;7.60;;;4.50;;
44462;SDS011;30170;52.190;8.702;2023-01-04T12:01:03;7.68;;;4.55;;
44462;SDS011;30170;52.190;8.702;2023-01-04T12:03:31;11.65;;;6.65;;
44462;SDS011;30170;52.190;8.702;2023-01-04T12:06:01;6.55;;;4.28;;
44462;SDS011;30170;52.190;8.702;2023-01-04T12:08:30;6.20;;;4.05;;
44462;SDS011;30170;52.190;8.702;2023-01-04T12:10:58;4.82;;;3.67;;
44462;SDS011;30170;52.190;8.702;2023-01-04T12:13:26;6.63;;;4.05;;
44462;SDS011;30170;52.190;8.702;2023-01-04T12:18:40;8.20;;;4.10;;
44462;SDS011;30170;52.190;8.702;2023-01-04T12:21:24;7.93;;;4.60;;
44462;SDS011;30170;52.190;8.702;2023-01-04T12:26:18;5.60;;;4.03;;
44462;SDS011;30170;52.190;8.702;2023-01-04T12:31:32;6.80;;;3.80;;
44462;SDS011;30170;52.190;8.702;2023-01-04T12:47:03;5.68;;;4.32;;
44462;SDS011;30170;52.190;8.702;2023-01-04T12:57:53;6.10;;;4.25;;
44462;SDS011;30170;52.190;8.702;2023-01-04T13:00:21;5.57;;;4.07;;
44462;SDS011;30170;52.190;8.702;2023-01-04T13:05:35;8.38;;;5.13;;
44462;SDS011;30170;52.190;8.702;2023-01-04T13:08:23;5.43;;;4.13;;
44462;SDS011;30170;52.190;8.702;2023-01-04T13:10:53;7.10;;;5.53;;
44462;SDS011;30170;52.190;8.702;2023-01-04T13:21:00;6.18;;;4.70;;
44462;SDS011;30170;52.190;8.702;2023-01-04T13:23:28;6.18;;;4.15;;
44462;SDS011;30170;52.190;8.702;2023-01-04T13:25:58;7.03;;;4.75;;
44462;SDS011;30170;52.190;8.702;2023-01-04T13:28:43;6.38;;;4.70;;
44462;SDS011;30170;52.190;8.702;2023-01-04T13:31:10;6.40;;;4.40;;
44462;SDS011;30170;52.190;8.702;2023-01-04T13:33:37;5.13;;;4.18;;
44462;SDS011;30170;52.190;8.702;2023-01-04T13:36:08;8.02;;;4.60;;
44462;SDS011;30170;52.190;8.702;2023-01-04T13:38:38;6.90;;;4.80;;
44462;SDS011;30170;52.190;8.702;2023-01-04T13:41:16;7.55;;;5.65;;
44462;SDS011;30170;52.190;8.702;2023-01-04T13:43:56;8.30;;;5.47;;
44462;SDS011;30170;52.190;8.702;2023-01-04T13:46:29;10.32;;;5.72;;
44462;SDS011;30170;52.190;8.702;2023-01-04T13:48:59;10.73;;;6.20;;
44462;SDS011;30170;52.190;8.702;2023-01-04T13:51:28;7.68;;;5.78;;
44462;SDS011;30170;52.190;8.702;2023-01-04T13:54:03;6.70;;;5.60;;
44462;SDS011;30170;52.190;8.702;2023-01-04T13:56:32;8.25;;;5.68;;
44462;SDS011;30170;52.190;8.702;2023-01-04T13:59:00;6.13;;;5.10;;
44462;SDS011;30170;52.190;8.702;2023-01-04T14:01:28;7.10;;;5.68;;
44462;SDS011;30170;52.190;8.702;2023-01-04T14:04:01;8.23;;;6.28;;
44462;SDS011;30170;52.190;8.702;2023-01-04T14:06:30;6.90;;;5.30;;
44462;SDS011;30170;52.190;8.702;2023-01-04T14:11:26;6.68;;;5.13;;
44462;SDS011;30170;52.190;8.702;2023-01-04T14:16:51;7.68;;;5.90;;
44462;SDS011;30170;52.190;8.702;2023-01-04T14:23:24;4.15;;;3.30;;
44462;SDS011;30170;52.190;8.702;2023-01-04T14:26:34;5.50;;;3.95;;
44462;SDS011;30170;52.190;8.702;2023-01-04T14:29:19;4.75;;;3.95;;
44462;SDS011;30170;52.190;8.702;2023-01-04T14:31:54;4.55;;;3.83;;
44462;SDS011;30170;52.190;8.702;2023-01-04T14:34:21;5.53;;;4.07;;
44462;SDS011;30170;52.190;8.702;2023-01-04T14:36:49;4.93;;;3.50;;
44462;SDS011;30170;52.190;8.702;2023-01-04T14:39:23;4.47;;;3.95;;
44462;SDS011;30170;52.190;8.702;2023-01-04T14:41:53;6.13;;;4.18;;
44462;SDS011;30170;52.190;8.702;2023-01-04T14:44:27;5.18;;;3.67;;
44462;SDS011;30170;52.190;8.702;2023-01-04T14:46:57;4.75;;;4.10;;
44462;SDS011;30170;52.190;8.702;2023-01-04T14:49:25;5.82;;;4.43;;
44462;SDS011;30170;52.190;8.702;2023-01-04T14:52:00;6.35;;;3.80;;
44462;SDS011;30170;52.190;8.702;2023-01-04T14:54:28;7.05;;;4.20;;
44462;SDS011;30170;52.190;8.702;2023-01-04T14:56:57;6.07;;;4.25;;
44462;SDS011;30170;52.190;8.702;2023-01-04T14:59:25;7.40;;;3.47;;
44462;SDS011;30170;52.190;8.702;2023-01-04T15:01:53;4.60;;;3.35;;
44462;SDS011;30170;52.190;8.702;2023-01-04T15:04:20;3.88;;;3.03;;
44462;SDS011;30170;52.190;8.702;2023-01-04T15:06:49;5.20;;;3.22;;
44462;SDS011;30170;52.190;8.702;2023-01-04T15:09:17;6.47;;;3.55;;
44462;SDS011;30170;52.190;8.702;2023-01-04T15:11:45;6.93;;;3.55;;
44462;SDS011;30170;52.190;8.702;2023-01-04T15:14:12;4.95;;;2.28;;
44462;SDS011;30170;52.190;8.702;2023-01-04T15:16:39;4.78;;;2.80;;
44462;SDS011;30170;52.190;8.702;2023-01-04T15:19:07;5.63;;;3.25;;
44462;SDS011;30170;52.190;8.702;2023-01-04T15:21:34;9.63;;;3.38;;
44462;SDS011;30170;52.190;8.702;2023-01-04T15:24:16;8.98;;;2.83;;
44462;SDS011;30170;52.190;8.702;2023-01-04T15:26:43;7.28;;;2.60;;
44462;SDS011;30170;52.190;8.702;2023-01-04T15:29:10;5.97;;;3.05;;
44462;SDS011;30170;52.190;8.702;2023-01-04T15:31:38;10.80;;;2.30;;
44462;SDS011;30170;52.190;8.702;2023-01-04T15:34:07;8.80;;;2.45;;
44462;SDS011;30170;52.190;8.702;2023-01-04T15:36:35;5.95;;;2.40;;
44462;SDS011;30170;52.190;8.702;2023-01-04T15:39:06;5.85;;;2.28;;
44462;SDS011;30170;52.190;8.702;2023-01-04T15:41:33;4.93;;;2.35;;
44462;SDS011;30170;52.190;8.702;2023-01-04T15:44:19;7.28;;;2.65;;
44462;SDS011;30170;52.190;8.702;2023-01-04T15:46:46;5.40;;;2.63;;
44462;SDS011;30170;52.190;8.702;2023-01-04T15:49:16;5.15;;;2.28;;
44462;SDS011;30170;52.190;8.702;2023-01-04T15:51:46;4.25;;;2.35;;
44462;SDS011;30170;52.190;8.702;2023-01-04T15:54:17;5.18;;;2.10;;
44462;SDS011;30170;52.190;8.702;2023-01-04T15:56:47;5.20;;;2.47;;
44462;SDS011;30170;52.190;8.702;2023-01-04T15:59:14;7.75;;;2.20;;
44462;SDS011;30170;52.190;8.702;2023-01-04T16:01:42;4.85;;;2.47;;
44462;SDS011;30170;52.190;8.702;2023-01-04T16:04:10;5.25;;;2.35;;
44462;SDS011;30170;52.190;8.702;2023-01-04T16:06:37;6.80;;;2.65;;
44462;SDS011;30170;52.190;8.702;2023-01-04T16:09:05;4.63;;;2.22;;
44462;SDS011;30170;52.190;8.702;2023-01-04T16:11:33;3.72;;;2.15;;
44462;SDS011;30170;52.190;8.702;2023-01-04T16:14:00;7.25;;;2.17;;
44462;SDS011;30170;52.190;8.702;2023-01-04T16:16:27;4.40;;;2.13;;
44462;SDS011;30170;52.190;8.702;2023-01-04T16:18:55;9.05;;;2.50;;
44462;SDS011;30170;52.190;8.702;2023-01-04T16:21:24;5.63;;;2.47;;
44462;SDS011;30170;52.190;8.702;2023-01-04T16:23:55;5.65;;;2.25;;
44462;SDS011;30170;52.190;8.702;2023-01-04T16:26:32;4.40;;;2.42;;
44462;SDS011;30170;52.190;8.702;2023-01-04T16:28:59;4.03;;;2.10;;
44462;SDS011;30170;52.190;8.702;2023-01-04T16:31:31;5.78;;;2.40;;
44462;SDS011;30170;52.190;8.702;2023-01-04T16:34:00;2.97;;;1.90;;
44462;SDS011;30170;52.190;8.702;2023-01-04T16:36:27;5.85;;;2.60;;
44462;SDS011;30170;52.190;8.702;2023-01-04T16:38:54;3.70;;;2.45;;
44462;SDS011;30170;52.190;8.702;2023-01-04T16:41:22;4.43;;;2.42;;
44462;SDS011;30170;52.190;8.702;2023-01-04T16:43:51;5.35;;;2.42;;
44462;SDS011;30170;52.190;8.702;2023-01-04T16:49:01;8.80;;;2.63;;
44462;SDS011;30170;52.190;8.702;2023-01-04T16:51:37;8.82;;;3.08;;
44462;SDS011;30170;52.190;8.702;2023-01-04T16:54:06;7.03;;;2.80;;
44462;SDS011;30170;52.190;8.702;2023-01-04T16:56:34;8.50;;;3.17;;
44462;SDS011;30170;52.190;8.702;2023-01-04T16:59:02;8.10;;;2.83;;
44462;SDS011;30170;52.190;8.702;2023-01-04T17:01:31;7.93;;;3.00;;
44462;SDS011;30170;52.190;8.702;2023-01-04T17:03:59;8.00;;;2.92;;
44462;SDS011;30170;52.190;8.702;2023-01-04T17:06:28;9.00;;;3.72;;
44462;SDS011;30170;52.190;8.702;2023-01-04T17:09:05;8.20;;;3.95;;
44462;SDS011;30170;52.190;8.702;2023-01-04T17:12:03;7.25;;;4.22;;
44462;SDS011;30170;52.190;8.702;2023-01-04T17:14:51;12.05;;;4.05;;
44462;SDS011;30170;52.190;8.702;2023-01-04T17:17:38;10.23;;;4.03;;
44462;SDS011;30170;52.190;8.702;2023-01-04T17:20:05;8.90;;;3.95;;
44462;SDS011;30170;52.190;8.702;2023-01-04T17:22:33;7.78;;;4.38;;
44462;SDS011;30170;52.190;8.702;2023-01-04T17:25:00;13.52;;;4.60;;
44462;SDS011;30170;52.190;8.702;2023-01-04T17:27:28;8.48;;;4.53;;
44462;SDS011;30170;52.190;8.702;2023-01-04T17:29:55;9.43;;;3.83;;
44462;SDS011;30170;52.190;8.702;2023-01-04T17:32:22;7.55;;;3.97;;
44462;SDS011;30170;52.190;8.702;2023-01-04T17:34:50;11.40;;;3.95;;
44462;SDS011;30170;52.190;8.702;2023-01-04T17:37:17;7.63;;;3.65;;
44462;SDS011;30170;52.190;8.702;2023-01-04T17:39:44;9.07;;;3.65;;
44462;SDS011;30170;52.190;8.702;2023-01-04T17:42:12;9.13;;;4.13;;